sensor_id;sensor_type;location;lat;lon;timestamp;P1;durP1;ratioP1;P2;durP2;ratioP2
17890;SDS011;9071;48.220;14.480;2023-06-26T00:03:07;13.85;;;11.48;;
17890;SDS011;9071;48.220;14.480;2023-06-26T00:08:10;13.70;;;10.70;;
17890;SDS011;9071;48.220;14.480;2023-06-26T00:13:12;13.13;;;10.60;;
17890;SDS011;9071;48.220;14.480;2023-06-26T00:18:14;14.35;;;11.43;;
17890;SDS011;9071;48.220;14.480;2023-06-26T00:23:18;14.07;;;10.57;;
17890;SDS011;9071;48.220;14.480;2023-06-26T00:28:20;15.52;;;12.52;;
17890;SDS011;9071;48.220;14.480;2023-06-26T00:33:22;17.70;;;12.55;;
17890;SDS011;9071;48.220;14.480;2023-06-26T00:38:26;16.85;;;11.52;;
17890;SDS011;9071;48.220;14.480;2023-06-26T00:43:28;15.25;;;11.98;;
17890;SDS011;9071;48.220;14.480;2023-06-26T00:48:30;16.20;;;12.02;;
17890;SDS011;9071;48.220;14.480;2023-06-26T00:53:33;16.45;;;12.55;;
17890;SDS011;9071;48.220;14.480;2023-06-26T00:58:36;17.88;;;13.23;;
17890;SDS011;9071;48.220;14.480;2023-06-26T01:03:38;17.42;;;12.20;;
17890;SDS011;9071;48.220;14.480;2023-06-26T01:08:41;14.45;;;11.77;;
17890;SDS011;9071;48.220;14.480;2023-06-26T01:13:44;12.85;;;10.85;;
17890;SDS011;9071;48.220;14.480;2023-06-26T01:18:47;15.18;;;11.75;;
17890;SDS011;9071;48.220;14.480;2023-06-26T01:23:58;14.50;;;10.93;;
17890;SDS011;9071;48.220;14.480;2023-06-26T01:29:22;15.05;;;11.40;;
17890;SDS011;9071;48.220;14.480;2023-06-26T01:34:25;16.83;;;12.73;;
17890;SDS011;9071;48.220;14.480;2023-06-26T01:39:28;20.73;;;12.63;;
17890;SDS011;9071;48.220;14.480;2023-06-26T01:44:33;17.20;;;13.40;;
17890;SDS011;9071;48.220;14.480;2023-06-26T01:49:43;15.80;;;12.33;;
17890;SDS011;9071;48.220;14.480;2023-06-26T01:54:52;20.33;;;13.43;;
17890;SDS011;9071;48.220;14.480;2023-06-26T01:59:58;16.73;;;13.63;;
17890;SDS011;9071;48.220;14.480;2023-06-26T02:05:02;16.93;;;13.43;;
17890;SDS011;9071;48.220;14.480;2023-06-26T02:10:04;17.37;;;14.07;;
17890;SDS011;9071;48.220;14.480;2023-06-26T02:15:09;21.97;;;15.30;;
17890;SDS011;9071;48.220;14.480;2023-06-26T02:20:12;21.23;;;15.07;;
17890;SDS011;9071;48.220;14.480;2023-06-26T02:25:14;20.47;;;13.80;;
17890;SDS011;9071;48.220;14.480;2023-06-26T02:30:18;19.73;;;14.37;;
17890;SDS011;9071;48.220;14.480;2023-06-26T02:35:20;17.20;;;13.07;;
17890;SDS011;9071;48.220;14.480;2023-06-26T02:40:22;18.13;;;13.47;;
17890;SDS011;9071;48.220;14.480;2023-06-26T02:45:25;15.80;;;13.07;;
17890;SDS011;9071;48.220;14.480;2023-06-26T02:50:27;17.30;;;13.47;;
17890;SDS011;9071;48.220;14.480;2023-06-26T02:55:30;16.27;;;11.23;;
17890;SDS011;9071;48.220;14.480;2023-06-26T03:00:33;16.10;;;11.37;;
17890;SDS011;9071;48.220;14.480;2023-06-26T03:05:35;21.83;;;16.20;;
17890;SDS011;9071;48.220;14.480;2023-06-26T03:10:37;18.90;;;14.17;;
17890;SDS011;9071;48.220;14.480;2023-06-26T03:15:41;20.27;;;14.90;;
17890;SDS011;9071;48.220;14.480;2023-06-26T03:20:43;20.27;;;14.37;;
17890;SDS011;9071;48.220;14.480;2023-06-26T03:25:45;22.27;;;15.30;;
17890;SDS011;9071;48.220;14.480;2023-06-26T03:30:48;17.13;;;14.07;;
17890;SDS011;9071;48.220;14.480;2023-06-26T03:35:51;20.30;;;14.17;;
17890;SDS011;9071;48.220;14.480;2023-06-26T03:40:53;19.97;;;13.63;;
17890;SDS011;9071;48.220;14.480;2023-06-26T03:45:56;23.83;;;14.47;;
17890;SDS011;9071;48.220;14.480;2023-06-26T03:50:58;17.43;;;13.97;;
17890;SDS011;9071;48.220;14.480;2023-06-26T03:56:02;21.07;;;14.97;;
17890;SDS011;9071;48.220;14.480;2023-06-26T04:01:05;21.07;;;14.37;;
17890;SDS011;9071;48.220;14.480;2023-06-26T04:06:07;22.53;;;14.40;;
17890;SDS011;9071;48.220;14.480;2023-06-26T04:11:11;18.23;;;13.33;;
17890;SDS011;9071;48.220;14.480;2023-06-26T04:16:14;17.67;;;13.43;;
17890;SDS011;9071;48.220;14.480;2023-06-26T04:21:16;18.67;;;13.90;;
17890;SDS011;9071;48.220;14.480;2023-06-26T04:26:20;20.47;;;14.20;;
17890;SDS011;9071;48.220;14.480;2023-06-26T04:31:23;20.17;;;13.70;;
17890;SDS011;9071;48.220;14.480;2023-06-26T04:36:25;18.77;;;12.77;;
17890;SDS011;9071;48.220;14.480;2023-06-26T04:41:28;17.10;;;11.97;;
17890;SDS011;9071;48.220;14.480;2023-06-26T04:46:32;20.08;;;12.32;;
17890;SDS011;9071;48.220;14.480;2023-06-26T04:51:34;16.00;;;11.77;;
17890;SDS011;9071;48.220;14.480;2023-06-26T04:56:40;15.85;;;10.55;;
17890;SDS011;9071;48.220;14.480;2023-06-26T05:01:45;15.48;;;11.25;;
17890;SDS011;9071;48.220;14.480;2023-06-26T05:06:48;18.02;;;11.52;;
17890;SDS011;9071;48.220;14.480;2023-06-26T05:11:50;14.05;;;10.82;;
17890;SDS011;9071;48.220;14.480;2023-06-26T05:16:53;12.43;;;10.27;;
17890;SDS011;9071;48.220;14.480;2023-06-26T05:21:55;10.63;;;9.15;;
17890;SDS011;9071;48.220;14.480;2023-06-26T05:26:58;11.07;;;8.30;;
17890;SDS011;9071;48.220;14.480;2023-06-26T05:32:02;9.55;;;8.15;;
17890;SDS011;9071;48.220;14.480;2023-06-26T05:37:05;10.80;;;8.23;;
17890;SDS011;9071;48.220;14.480;2023-06-26T05:42:09;10.90;;;8.30;;
17890;SDS011;9071;48.220;14.480;2023-06-26T05:47:14;11.65;;;8.70;;
17890;SDS011;9071;48.220;14.480;2023-06-26T05:52:17;11.60;;;8.82;;
17890;SDS011;9071;48.220;14.480;2023-06-26T05:57:19;15.90;;;10.20;;
17890;SDS011;9071;48.220;14.480;2023-06-26T06:02:23;13.55;;;10.02;;
17890;SDS011;9071;48.220;14.480;2023-06-26T06:07:25;10.55;;;9.45;;
17890;SDS011;9071;48.220;14.480;2023-06-26T06:12:27;10.77;;;8.52;;
17890;SDS011;9071;48.220;14.480;2023-06-26T06:17:30;10.80;;;8.88;;
17890;SDS011;9071;48.220;14.480;2023-06-26T06:22:32;10.98;;;9.60;;
17890;SDS011;9071;48.220;14.480;2023-06-26T06:27:34;12.73;;;9.90;;
17890;SDS011;9071;48.220;14.480;2023-06-26T06:32:38;11.65;;;8.57;;
17890;SDS011;9071;48.220;14.480;2023-06-26T06:37:40;10.32;;;8.52;;
17890;SDS011;9071;48.220;14.480;2023-06-26T06:42:42;10.48;;;8.55;;
17890;SDS011;9071;48.220;14.480;2023-06-26T06:47:45;11.57;;;9.05;;
17890;SDS011;9071;48.220;14.480;2023-06-26T06:52:47;10.30;;;9.30;;
17890;SDS011;9071;48.220;14.480;2023-06-26T06:57:50;9.98;;;8.13;;
17890;SDS011;9071;48.220;14.480;2023-06-26T07:02:53;11.77;;;8.98;;
17890;SDS011;9071;48.220;14.480;2023-06-26T07:07:56;12.20;;;8.50;;
17890;SDS011;9071;48.220;14.480;2023-06-26T07:12:59;14.90;;;9.23;;
17890;SDS011;9071;48.220;14.480;2023-06-26T07:18:02;12.15;;;9.52;;
17890;SDS011;9071;48.220;14.480;2023-06-26T07:23:04;12.85;;;8.82;;
17890;SDS011;9071;48.220;14.480;2023-06-26T07:28:09;15.40;;;7.97;;
17890;SDS011;9071;48.220;14.480;2023-06-26T07:33:13;12.10;;;8.68;;
17890;SDS011;9071;48.220;14.480;2023-06-26T07:38:15;10.57;;;7.97;;
17890;SDS011;9071;48.220;14.480;2023-06-26T07:43:17;14.88;;;8.15;;
17890;SDS011;9071;48.220;14.480;2023-06-26T07:48:21;12.48;;;8.27;;
17890;SDS011;9071;48.220;14.480;2023-06-26T07:53:23;13.63;;;8.63;;
17890;SDS011;9071;48.220;14.480;2023-06-26T07:58:25;10.25;;;8.73;;
17890;SDS011;9071;48.220;14.480;2023-06-26T08:03:28;14.18;;;8.18;;
17890;SDS011;9071;48.220;14.480;2023-06-26T08:08:30;14.52;;;8.68;;
17890;SDS011;9071;48.220;14.480;2023-06-26T08:13:33;16.25;;;8.60;;
17890;SDS011;9071;48.220;14.480;2023-06-26T08:18:36;20.58;;;8.80;;
17890;SDS011;9071;48.220;14.480;2023-06-26T08:23:38;16.08;;;8.77;;
17890;SDS011;9071;48.220;14.480;2023-06-26T08:28:40;16.95;;;8.00;;
17890;SDS011;9071;48.220;14.480;2023-06-26T08:33:44;13.20;;;8.63;;
17890;SDS011;9071;48.220;14.480;2023-06-26T08:38:46;10.63;;;8.60;;
17890;SDS011;9071;48.220;14.480;2023-06-26T08:43:48;13.43;;;8.13;;
17890;SDS011;9071;48.220;14.480;2023-06-26T08:48:54;16.65;;;8.30;;
17890;SDS011;9071;48.220;14.480;2023-06-26T08:53:57;10.52;;;7.95;;
17890;SDS011;9071;48.220;14.480;2023-06-26T08:59:00;10.85;;;7.95;;
17890;SDS011;9071;48.220;14.480;2023-06-26T09:04:04;10.48;;;8.07;;
17890;SDS011;9071;48.220;14.480;2023-06-26T09:09:07;12.15;;;8.13;;
17890;SDS011;9071;48.220;14.480;2023-06-26T09:14:10;11.70;;;8.48;;
17890;SDS011;9071;48.220;14.480;2023-06-26T09:19:16;12.57;;;9.25;;
17890;SDS011;9071;48.220;14.480;2023-06-26T09:24:18;9.38;;;7.88;;
17890;SDS011;9071;48.220;14.480;2023-06-26T09:29:20;14.02;;;8.57;;
17890;SDS011;9071;48.220;14.480;2023-06-26T09:34:24;11.43;;;8.48;;
17890;SDS011;9071;48.220;14.480;2023-06-26T09:39:32;9.75;;;7.97;;
17890;SDS011;9071;48.220;14.480;2023-06-26T09:44:34;12.05;;;8.80;;
17890;SDS011;9071;48.220;14.480;2023-06-26T09:49:37;9.73;;;7.65;;
17890;SDS011;9071;48.220;14.480;2023-06-26T09:54:43;13.88;;;8.40;;
17890;SDS011;9071;48.220;14.480;2023-06-26T09:59:45;11.82;;;8.07;;
17890;SDS011;9071;48.220;14.480;2023-06-26T10:04:49;19.98;;;8.30;;
17890;SDS011;9071;48.220;14.480;2023-06-26T10:09:51;12.77;;;8.18;;
17890;SDS011;9071;48.220;14.480;2023-06-26T10:14:57;10.98;;;7.53;;
17890;SDS011;9071;48.220;14.480;2023-06-26T10:20:02;10.82;;;7.90;;
17890;SDS011;9071;48.220;14.480;2023-06-26T10:25:07;11.68;;;8.10;;
17890;SDS011;9071;48.220;14.480;2023-06-26T10:30:12;9.32;;;8.05;;
17890;SDS011;9071;48.220;14.480;2023-06-26T10:35:18;9.43;;;7.75;;
17890;SDS011;9071;48.220;14.480;2023-06-26T10:40:22;9.27;;;8.07;;
17890;SDS011;9071;48.220;14.480;2023-06-26T10:45:28;8.75;;;7.47;;
17890;SDS011;9071;48.220;14.480;2023-06-26T10:50:31;8.07;;;6.97;;
17890;SDS011;9071;48.220;14.480;2023-06-26T10:55:35;9.52;;;6.53;;
17890;SDS011;9071;48.220;14.480;2023-06-26T11:00:37;9.23;;;6.43;;
17890;SDS011;9071;48.220;14.480;2023-06-26T11:06:05;7.60;;;6.82;;
17890;SDS011;9071;48.220;14.480;2023-06-26T11:11:11;7.88;;;7.07;;
17890;SDS011;9071;48.220;14.480;2023-06-26T11:16:14;10.70;;;7.32;;
17890;SDS011;9071;48.220;14.480;2023-06-26T11:21:18;6.82;;;6.10;;
17890;SDS011;9071;48.220;14.480;2023-06-26T11:26:23;7.82;;;5.97;;
17890;SDS011;9071;48.220;14.480;2023-06-26T11:31:26;8.93;;;6.43;;
17890;SDS011;9071;48.220;14.480;2023-06-26T11:36:31;6.85;;;5.90;;
17890;SDS011;9071;48.220;14.480;2023-06-26T11:41:37;7.82;;;5.35;;
17890;SDS011;9071;48.220;14.480;2023-06-26T11:46:40;8.02;;;7.22;;
17890;SDS011;9071;48.220;14.480;2023-06-26T11:51:45;7.90;;;5.47;;
17890;SDS011;9071;48.220;14.480;2023-06-26T11:56:51;7.32;;;5.10;;
17890;SDS011;9071;48.220;14.480;2023-06-26T12:01:54;9.68;;;6.63;;
17890;SDS011;9071;48.220;14.480;2023-06-26T12:06:57;7.10;;;6.40;;
17890;SDS011;9071;48.220;14.480;2023-06-26T12:12:00;6.93;;;6.15;;
17890;SDS011;9071;48.220;14.480;2023-06-26T12:17:08;6.65;;;5.88;;
17890;SDS011;9071;48.220;14.480;2023-06-26T12:22:12;8.23;;;6.15;;
17890;SDS011;9071;48.220;14.480;2023-06-26T12:27:14;7.75;;;6.10;;
17890;SDS011;9071;48.220;14.480;2023-06-26T12:32:19;10.50;;;5.30;;
17890;SDS011;9071;48.220;14.480;2023-06-26T12:37:24;5.53;;;5.00;;
17890;SDS011;9071;48.220;14.480;2023-06-26T12:42:27;8.80;;;5.80;;
17890;SDS011;9071;48.220;14.480;2023-06-26T12:47:30;4.70;;;4.20;;
17890;SDS011;9071;48.220;14.480;2023-06-26T12:52:36;5.53;;;3.80;;
17890;SDS011;9071;48.220;14.480;2023-06-26T12:57:38;3.92;;;3.55;;
17890;SDS011;9071;48.220;14.480;2023-06-26T13:02:40;7.53;;;5.00;;
17890;SDS011;9071;48.220;14.480;2023-06-26T13:07:43;5.32;;;4.82;;
17890;SDS011;9071;48.220;14.480;2023-06-26T13:12:46;4.93;;;4.28;;
17890;SDS011;9071;48.220;14.480;2023-06-26T13:17:48;6.07;;;4.35;;
17890;SDS011;9071;48.220;14.480;2023-06-26T13:22:51;4.88;;;4.32;;
17890;SDS011;9071;48.220;14.480;2023-06-26T13:27:54;5.47;;;4.93;;
17890;SDS011;9071;48.220;14.480;2023-06-26T13:32:56;5.00;;;4.50;;
17890;SDS011;9071;48.220;14.480;2023-06-26T13:37:59;6.60;;;5.30;;
17890;SDS011;9071;48.220;14.480;2023-06-26T13:43:01;5.43;;;4.93;;
17890;SDS011;9071;48.220;14.480;2023-06-26T13:48:04;7.20;;;5.78;;
17890;SDS011;9071;48.220;14.480;2023-06-26T13:53:07;8.25;;;5.18;;
17890;SDS011;9071;48.220;14.480;2023-06-26T13:58:09;5.65;;;4.97;;
17890;SDS011;9071;48.220;14.480;2023-06-26T14:03:13;5.63;;;5.10;;
17890;SDS011;9071;48.220;14.480;2023-06-26T14:08:17;6.57;;;5.85;;
17890;SDS011;9071;48.220;14.480;2023-06-26T14:13:19;7.25;;;5.80;;
17890;SDS011;9071;48.220;14.480;2023-06-26T14:18:21;6.70;;;5.72;;
17890;SDS011;9071;48.220;14.480;2023-06-26T14:23:25;6.50;;;5.70;;
17890;SDS011;9071;48.220;14.480;2023-06-26T14:28:27;6.18;;;5.68;;
17890;SDS011;9071;48.220;14.480;2023-06-26T14:33:29;8.32;;;5.22;;
17890;SDS011;9071;48.220;14.480;2023-06-26T14:38:32;5.97;;;5.28;;
17890;SDS011;9071;48.220;14.480;2023-06-26T14:43:34;5.80;;;5.28;;
17890;SDS011;9071;48.220;14.480;2023-06-26T14:48:36;6.07;;;5.47;;
17890;SDS011;9071;48.220;14.480;2023-06-26T14:53:40;6.25;;;5.22;;
17890;SDS011;9071;48.220;14.480;2023-06-26T14:58:42;7.47;;;5.10;;
17890;SDS011;9071;48.220;14.480;2023-06-26T15:03:47;6.70;;;5.22;;
17890;SDS011;9071;48.220;14.480;2023-06-26T15:08:50;7.03;;;5.10;;
17890;SDS011;9071;48.220;14.480;2023-06-26T15:13:52;6.00;;;5.30;;
17890;SDS011;9071;48.220;14.480;2023-06-26T15:18:56;8.02;;;5.28;;
17890;SDS011;9071;48.220;14.480;2023-06-26T15:24:00;8.80;;;4.90;;
17890;SDS011;9071;48.220;14.480;2023-06-26T15:29:02;5.40;;;4.90;;
17890;SDS011;9071;48.220;14.480;2023-06-26T15:34:04;6.07;;;5.32;;
17890;SDS011;9071;48.220;14.480;2023-06-26T15:39:08;7.30;;;5.75;;
17890;SDS011;9071;48.220;14.480;2023-06-26T15:44:11;5.60;;;5.10;;
17890;SDS011;9071;48.220;14.480;2023-06-26T15:49:13;7.05;;;5.55;;
17890;SDS011;9071;48.220;14.480;2023-06-26T15:54:16;7.40;;;5.93;;
17890;SDS011;9071;48.220;14.480;2023-06-26T15:59:18;5.97;;;5.38;;
17890;SDS011;9071;48.220;14.480;2023-06-26T16:04:21;6.07;;;5.20;;
17890;SDS011;9071;48.220;14.480;2023-06-26T16:09:24;8.02;;;5.82;;
17890;SDS011;9071;48.220;14.480;2023-06-26T16:14:26;6.72;;;5.32;;
17890;SDS011;9071;48.220;14.480;2023-06-26T16:19:28;6.25;;;5.38;;
17890;SDS011;9071;48.220;14.480;2023-06-26T16:24:32;5.70;;;5.18;;
17890;SDS011;9071;48.220;14.480;2023-06-26T16:29:34;6.40;;;5.80;;
17890;SDS011;9071;48.220;14.480;2023-06-26T16:34:36;8.95;;;6.05;;
17890;SDS011;9071;48.220;14.480;2023-06-26T16:39:39;8.25;;;5.65;;
17890;SDS011;9071;48.220;14.480;2023-06-26T16:44:41;6.13;;;5.50;;
17890;SDS011;9071;48.220;14.480;2023-06-26T16:49:43;6.22;;;5.60;;
17890;SDS011;9071;48.220;14.480;2023-06-26T16:54:47;6.45;;;5.80;;
17890;SDS011;9071;48.220;14.480;2023-06-26T16:59:49;6.97;;;5.00;;
17890;SDS011;9071;48.220;14.480;2023-06-26T17:04:51;6.97;;;4.90;;
17890;SDS011;9071;48.220;14.480;2023-06-26T17:09:55;7.20;;;5.75;;
17890;SDS011;9071;48.220;14.480;2023-06-26T17:14:57;6.85;;;5.57;;
17890;SDS011;9071;48.220;14.480;2023-06-26T17:20:00;6.70;;;5.60;;
17890;SDS011;9071;48.220;14.480;2023-06-26T17:25:05;7.47;;;5.63;;
17890;SDS011;9071;48.220;14.480;2023-06-26T17:30:09;9.13;;;5.97;;
17890;SDS011;9071;48.220;14.480;2023-06-26T17:35:12;8.85;;;5.95;;
17890;SDS011;9071;48.220;14.480;2023-06-26T17:40:15;8.32;;;5.50;;
17890;SDS011;9071;48.220;14.480;2023-06-26T17:45:17;8.63;;;5.93;;
17890;SDS011;9071;48.220;14.480;2023-06-26T17:50:19;6.05;;;5.20;;
17890;SDS011;9071;48.220;14.480;2023-06-26T17:55:23;9.63;;;5.82;;
17890;SDS011;9071;48.220;14.480;2023-06-26T18:00:25;9.07;;;5.40;;
17890;SDS011;9071;48.220;14.480;2023-06-26T18:05:29;6.78;;;5.43;;
17890;SDS011;9071;48.220;14.480;2023-06-26T18:10:32;7.07;;;5.40;;
17890;SDS011;9071;48.220;14.480;2023-06-26T18:15:34;9.85;;;6.25;;
17890;SDS011;9071;48.220;14.480;2023-06-26T18:20:36;7.80;;;5.75;;
17890;SDS011;9071;48.220;14.480;2023-06-26T18:25:40;8.57;;;5.65;;
17890;SDS011;9071;48.220;14.480;2023-06-26T18:30:42;9.20;;;6.30;;
17890;SDS011;9071;48.220;14.480;2023-06-26T18:35:44;10.13;;;6.32;;
17890;SDS011;9071;48.220;14.480;2023-06-26T18:40:47;6.43;;;5.53;;
17890;SDS011;9071;48.220;14.480;2023-06-26T18:45:50;7.03;;;5.90;;
17890;SDS011;9071;48.220;14.480;2023-06-26T18:50:52;11.40;;;6.07;;
17890;SDS011;9071;48.220;14.480;2023-06-26T18:55:56;10.68;;;6.32;;
17890;SDS011;9071;48.220;14.480;2023-06-26T19:00:58;7.75;;;6.20;;
17890;SDS011;9071;48.220;14.480;2023-06-26T19:06:00;7.00;;;5.82;;
17890;SDS011;9071;48.220;14.480;2023-06-26T19:11:05;9.43;;;6.43;;
17890;SDS011;9071;48.220;14.480;2023-06-26T19:16:08;13.02;;;6.28;;
17890;SDS011;9071;48.220;14.480;2023-06-26T19:21:10;12.02;;;7.15;;
17890;SDS011;9071;48.220;14.480;2023-06-26T19:26:13;11.23;;;6.50;;
17890;SDS011;9071;48.220;14.480;2023-06-26T19:31:16;7.80;;;6.38;;
17890;SDS011;9071;48.220;14.480;2023-06-26T19:36:18;15.55;;;6.88;;
17890;SDS011;9071;48.220;14.480;2023-06-26T19:41:23;12.30;;;7.55;;
17890;SDS011;9071;48.220;14.480;2023-06-26T19:46:25;11.27;;;7.03;;
17890;SDS011;9071;48.220;14.480;2023-06-26T19:51:27;8.25;;;6.78;;
17890;SDS011;9071;48.220;14.480;2023-06-26T19:56:31;9.90;;;6.50;;
17890;SDS011;9071;48.220;14.480;2023-06-26T20:01:33;11.63;;;8.20;;
17890;SDS011;9071;48.220;14.480;2023-06-26T20:06:35;12.73;;;8.10;;
17890;SDS011;9071;48.220;14.480;2023-06-26T20:11:38;10.75;;;7.35;;
17890;SDS011;9071;48.220;14.480;2023-06-26T20:16:40;11.63;;;7.68;;
17890;SDS011;9071;48.220;14.480;2023-06-26T20:21:43;12.68;;;7.45;;
17890;SDS011;9071;48.220;14.480;2023-06-26T20:26:47;12.25;;;8.13;;
17890;SDS011;9071;48.220;14.480;2023-06-26T20:31:50;10.50;;;8.05;;
17890;SDS011;9071;48.220;14.480;2023-06-26T20:36:52;9.13;;;7.63;;
17890;SDS011;9071;48.220;14.480;2023-06-26T20:41:55;9.70;;;7.63;;
17890;SDS011;9071;48.220;14.480;2023-06-26T20:46:58;11.45;;;7.95;;
17890;SDS011;9071;48.220;14.480;2023-06-26T20:52:09;12.18;;;7.50;;
17890;SDS011;9071;48.220;14.480;2023-06-26T20:57:14;13.30;;;8.25;;
17890;SDS011;9071;48.220;14.480;2023-06-26T21:02:17;11.80;;;7.85;;
17890;SDS011;9071;48.220;14.480;2023-06-26T21:07:19;12.07;;;8.05;;
17890;SDS011;9071;48.220;14.480;2023-06-26T21:12:23;11.10;;;7.93;;
17890;SDS011;9071;48.220;14.480;2023-06-26T21:17:25;11.40;;;7.95;;
17890;SDS011;9071;48.220;14.480;2023-06-26T21:22:27;11.50;;;8.05;;
17890;SDS011;9071;48.220;14.480;2023-06-26T21:27:30;11.70;;;8.35;;
17890;SDS011;9071;48.220;14.480;2023-06-26T21:32:32;11.63;;;7.93;;
17890;SDS011;9071;48.220;14.480;2023-06-26T21:37:34;11.60;;;7.53;;
17890;SDS011;9071;48.220;14.480;2023-06-26T21:42:38;11.82;;;7.95;;
17890;SDS011;9071;48.220;14.480;2023-06-26T21:47:40;14.07;;;7.38;;
17890;SDS011;9071;48.220;14.480;2023-06-26T21:52:42;9.60;;;6.88;;
17890;SDS011;9071;48.220;14.480;2023-06-26T21:57:45;11.75;;;7.45;;
17890;SDS011;9071;48.220;14.480;2023-06-26T22:02:48;11.30;;;7.35;;
17890;SDS011;9071;48.220;14.480;2023-06-26T22:07:50;10.23;;;8.45;;
17890;SDS011;9071;48.220;14.480;2023-06-26T22:12:53;10.60;;;8.48;;
17890;SDS011;9071;48.220;14.480;2023-06-26T22:17:56;12.75;;;8.13;;
17890;SDS011;9071;48.220;14.480;2023-06-26T22:22:58;11.80;;;8.60;;
17890;SDS011;9071;48.220;14.480;2023-06-26T22:28:02;15.52;;;8.15;;
17890;SDS011;9071;48.220;14.480;2023-06-26T22:33:04;11.77;;;9.00;;
17890;SDS011;9071;48.220;14.480;2023-06-26T22:38:06;10.13;;;7.78;;
17890;SDS011;9071;48.220;14.480;2023-06-26T22:43:10;11.77;;;8.43;;
17890;SDS011;9071;48.220;14.480;2023-06-26T22:48:12;10.30;;;8.15;;
17890;SDS011;9071;48.220;14.480;2023-06-26T22:53:14;10.55;;;8.48;;
17890;SDS011;9071;48.220;14.480;2023-06-26T22:58:19;11.75;;;8.10;;
17890;SDS011;9071;48.220;14.480;2023-06-26T23:03:21;11.40;;;8.10;;
17890;SDS011;9071;48.220;14.480;2023-06-26T23:08:23;11.85;;;8.30;;
17890;SDS011;9071;48.220;14.480;2023-06-26T23:13:27;11.82;;;8.38;;
17890;SDS011;9071;48.220;14.480;2023-06-26T23:18:29;12.35;;;8.10;;
17890;SDS011;9071;48.220;14.480;2023-06-26T23:23:31;9.98;;;8.27;;
17890;SDS011;9071;48.220;14.480;2023-06-26T23:28:38;11.07;;;7.97;;
17890;SDS011;9071;48.220;14.480;2023-06-26T23:33:40;11.35;;;7.53;;
17890;SDS011;9071;48.220;14.480;2023-06-26T23:38:42;11.27;;;8.30;;
17890;SDS011;9071;48.220;14.480;2023-06-26T23:43:45;11.25;;;7.82;;
17890;SDS011;9071;48.220;14.480;2023-06-26T23:48:47;13.40;;;7.97;;
17890;SDS011;9071;48.220;14.480;2023-06-26T23:53:49;9.93;;;7.30;;
17890;SDS011;9071;48.220;14.480;2023-06-26T23:58:53;11.05;;;6.55;;
